Time;durP1;ratioP1;P1;durP2;ratioP2;P2;SDS_P1;SDS_P2;PMS_P1;PMS_P2;Temp;Humidity;BMP_temperature;BMP_pressure;BME280_temperature;BME280_humidity;BME280_pressure;Samples;Min_cycle;Max_cycle;Signal;HPM_P1;HPM_P2
2021/01/08 00:00:10;;;;;;;22.83;11.55;;;2.10;99.90;;;;;;4995518;28;20031;-57
2021/01/08 00:02:35;;;;;;;21.92;10.80;;;2.00;99.90;;;;;;4998691;28;20022;-58
2021/01/08 00:05:02;;;;;;;23.88;12.05;;;2.20;99.90;;;;;;4998087;28;20084;-57
2021/01/08 00:07:32;;;;;;;21.08;11.25;;;2.20;99.90;;;;;;5004628;28;20022;-55
2021/01/08 00:09:59;;;;;;;22.00;10.75;;;2.20;99.90;;;;;;5008784;28;20218;-54
2021/01/08 00:12:25;;;;;;;23.05;11.27;;;2.20;99.90;;;;;;5014529;28;20128;-57
2021/01/08 00:14:50;;;;;;;21.65;10.40;;;2.30;99.90;;;;;;5014611;28;20034;-57
2021/01/08 00:17:16;;;;;;;22.25;10.80;;;2.30;99.90;;;;;;5014578;28;20033;-54
2021/01/08 00:19:41;;;;;;;24.80;11.70;;;2.30;99.90;;;;;;5014084;28;20429;-57
2021/01/08 00:22:09;;;;;;;23.38;11.93;;;2.30;99.90;;;;;;5013782;28;20026;-55
2021/01/08 00:24:35;;;;;;;26.73;11.80;;;2.30;99.90;;;;;;5013523;28;20026;-57
2021/01/08 00:27:04;;;;;;;23.45;11.30;;;2.20;99.90;;;;;;5014253;28;20040;-53
2021/01/08 00:29:30;;;;;;;24.98;12.13;;;2.20;99.90;;;;;;5013445;28;20056;-53
2021/01/08 00:31:56;;;;;;;22.02;10.93;;;2.20;99.90;;;;;;4996548;28;20116;-53
2021/01/08 00:34:22;;;;;;;22.77;11.13;;;2.30;99.90;;;;;;5014338;28;20588;-55
2021/01/08 00:36:51;;;;;;;25.25;12.20;;;2.30;99.90;;;;;;5014007;28;20030;-54
2021/01/08 00:39:18;;;;;;;23.38;11.98;;;2.30;99.90;;;;;;5013393;28;20478;-55
2021/01/08 00:41:44;;;;;;;25.63;13.32;;;2.30;99.90;;;;;;5013135;28;20424;-58
2021/01/08 00:44:10;;;;;;;24.80;11.55;;;2.30;99.90;;;;;;5012932;28;20029;-58
2021/01/08 00:46:37;;;;;;;25.45;12.25;;;2.30;99.90;;;;;;5007447;28;20421;-58
2021/01/08 00:49:04;;;;;;;23.13;11.82;;;2.30;99.90;;;;;;5012290;28;20042;-58
2021/01/08 00:51:29;;;;;;;22.83;10.80;;;2.40;99.90;;;;;;5013684;28;20033;-54
2021/01/08 00:53:55;;;;;;;24.67;10.80;;;2.40;99.90;;;;;;5012264;28;20480;-56
2021/01/08 00:56:21;;;;;;;26.63;13.60;;;2.40;99.90;;;;;;5012736;28;20045;-57
2021/01/08 00:58:47;;;;;;;24.65;11.70;;;2.50;99.90;;;;;;5012944;28;20041;-60
2021/01/08 01:01:14;;;;;;;25.63;11.43;;;2.50;99.90;;;;;;5013641;28;20022;-57
2021/01/08 01:03:40;;;;;;;23.77;12.32;;;2.50;99.90;;;;;;5011821;28;20125;-60
2021/01/08 01:06:05;;;;;;;27.35;12.35;;;2.50;99.90;;;;;;5000935;28;20173;-56
2021/01/08 01:08:31;;;;;;;24.17;12.55;;;2.40;99.90;;;;;;5003576;28;20046;-59
2021/01/08 01:10:57;;;;;;;26.13;13.00;;;2.40;99.90;;;;;;5003195;28;20018;-56
2021/01/08 01:13:23;;;;;;;26.38;12.80;;;2.40;99.90;;;;;;5000983;28;20045;-57
2021/01/08 01:15:48;;;;;;;26.23;13.13;;;2.40;99.90;;;;;;5001975;28;20553;-58
2021/01/08 01:18:14;;;;;;;26.13;12.32;;;2.50;99.90;;;;;;5002686;28;20450;-57
2021/01/08 01:20:40;;;;;;;24.60;12.27;;;2.50;99.90;;;;;;5003666;28;20389;-55
2021/01/08 01:23:06;;;;;;;25.35;12.80;;;2.50;99.90;;;;;;5012083;28;20103;-59
2021/01/08 01:25:32;;;;;;;26.00;13.45;;;2.50;99.90;;;;;;4309371;28;10000697;-58
2021/01/08 01:27:57;;;;;;;25.70;13.93;;;2.50;99.90;;;;;;4991937;28;20117;-55
2021/01/08 01:30:23;;;;;;;24.48;12.15;;;2.50;99.90;;;;;;4991672;28;20477;-60
2021/01/08 01:32:49;;;;;;;23.92;11.88;;;2.40;99.90;;;;;;4993592;28;20077;-59
2021/01/08 01:35:14;;;;;;;23.35;11.35;;;2.50;99.90;;;;;;4992960;28;20492;-58
2021/01/08 01:37:40;;;;;;;26.38;12.88;;;2.50;99.90;;;;;;4994092;28;20030;-59
2021/01/08 01:40:07;;;;;;;24.58;10.73;;;2.50;99.90;;;;;;4993686;28;20034;-54
2021/01/08 01:42:32;;;;;;;24.02;11.45;;;2.50;99.90;;;;;;4994231;28;20101;-55
2021/01/08 01:44:58;;;;;;;22.90;11.02;;;2.50;99.90;;;;;;4995460;28;20558;-59
2021/01/08 01:47:24;;;;;;;22.08;11.20;;;2.50;99.90;;;;;;4996975;28;20053;-61
2021/01/08 01:49:50;;;;;;;25.70;12.40;;;2.50;99.90;;;;;;4996142;28;20033;-60
2021/01/08 01:52:16;;;;;;;25.35;12.10;;;2.50;99.90;;;;;;4996520;28;20038;-60
2021/01/08 01:54:43;;;;;;;24.02;11.65;;;2.50;99.90;;;;;;4993783;28;20034;-58
2021/01/08 01:57:09;;;;;;;24.70;12.20;;;2.50;99.90;;;;;;4995334;28;20421;-58
2021/01/08 01:59:34;;;;;;;25.58;12.43;;;2.50;99.90;;;;;;4997136;28;20032;-58
2021/01/08 02:02:07;;;;;;;22.38;11.00;;;2.50;99.90;;;;;;4993597;28;20031;-58
2021/01/08 02:04:34;;;;;;;25.33;11.00;;;2.60;99.90;;;;;;4992419;28;20472;-58
2021/01/08 02:07:01;;;;;;;21.05;10.40;;;2.60;99.90;;;;;;5012959;28;20050;-58
2021/01/08 02:09:27;;;;;;;23.33;11.55;;;2.60;99.90;;;;;;5011070;28;20434;-57
2021/01/08 02:11:55;;;;;;;23.85;10.48;;;2.50;99.90;;;;;;5011709;28;20069;-58
2021/01/08 02:14:28;;;;;;;25.50;12.82;;;2.50;99.90;;;;;;5013023;28;20022;-59
2021/01/08 02:16:56;;;;;;;23.27;10.95;;;2.50;99.90;;;;;;5009865;28;20030;-53
2021/01/08 02:19:32;;;;;;;24.55;11.93;;;2.40;99.90;;;;;;4992633;28;20037;-59
2021/01/08 02:22:07;;;;;;;24.13;9.85;;;2.40;99.90;;;;;;4993291;28;20094;-56
2021/01/08 02:24:44;;;;;;;25.67;11.23;;;2.40;99.90;;;;;;4993399;28;20026;-59
2021/01/08 02:27:09;;;;;;;23.92;11.43;;;2.30;99.90;;;;;;4991999;28;20027;-55
2021/01/08 02:29:37;;;;;;;24.55;10.45;;;2.40;99.90;;;;;;4993256;28;20085;-57
2021/01/08 02:32:02;;;;;;;25.02;11.77;;;2.40;99.90;;;;;;4994382;28;20113;-58
2021/01/08 02:34:28;;;;;;;25.25;10.55;;;2.30;99.90;;;;;;5016799;28;20058;-60
2021/01/08 02:36:55;;;;;;;23.50;11.45;;;2.30;99.90;;;;;;5014168;28;20029;-55
2021/01/08 02:39:22;;;;;;;24.67;11.23;;;2.30;99.90;;;;;;4994319;28;20057;-56
2021/01/08 02:41:52;;;;;;;24.02;11.50;;;2.30;99.90;;;;;;4993390;28;20018;-58
2021/01/08 02:44:19;;;;;;;23.05;10.65;;;2.30;99.90;;;;;;4993004;28;20022;-59
2021/01/08 02:46:46;;;;;;;23.00;10.40;;;2.30;99.90;;;;;;5010483;28;20021;-56
2021/01/08 02:49:11;;;;;;;23.63;10.35;;;2.30;99.90;;;;;;5010487;28;20032;-59
2021/01/08 02:51:38;;;;;;;22.52;10.65;;;2.20;99.90;;;;;;5012420;28;20030;-57
2021/01/08 02:54:06;;;;;;;23.50;10.65;;;2.20;99.90;;;;;;5028420;23;20081;-61
2021/01/08 02:56:36;;;;;;;21.08;10.23;;;2.20;99.90;;;;;;4991492;28;20117;-62
2021/01/08 02:59:03;;;;;;;24.65;10.77;;;2.20;99.90;;;;;;4990469;28;20132;-62
2021/01/08 03:01:30;;;;;;;21.85;10.00;;;2.30;99.90;;;;;;4991584;28;20102;-61
2021/01/08 03:03:59;;;;;;;22.13;8.68;;;2.20;99.90;;;;;;4991339;28;20030;-61
2021/01/08 03:06:30;;;;;;;22.60;9.52;;;2.20;99.90;;;;;;4990026;28;20080;-61
2021/01/08 03:08:58;;;;;;;23.98;10.32;;;2.30;99.90;;;;;;4983148;28;20038;-60
2021/01/08 03:11:23;;;;;;;21.90;9.52;;;2.20;99.90;;;;;;4988688;28;20039;-61
2021/01/08 03:13:50;;;;;;;22.05;9.32;;;2.20;99.90;;;;;;4991005;28;20159;-60
2021/01/08 03:16:17;;;;;;;20.02;9.32;;;2.20;99.90;;;;;;4989860;28;20371;-62
2021/01/08 03:18:42;;;;;;;21.42;9.73;;;2.20;99.90;;;;;;4990055;28;20405;-61
2021/01/08 03:21:08;;;;;;;21.10;8.95;;;2.20;99.90;;;;;;4988804;28;20025;-59
2021/01/08 03:23:33;;;;;;;22.05;9.85;;;2.10;99.90;;;;;;4990810;28;20487;-61
2021/01/08 03:25:59;;;;;;;21.33;9.20;;;2.10;99.90;;;;;;4989777;28;20062;-62
2021/01/08 03:28:24;;;;;;;21.67;8.75;;;2.10;99.90;;;;;;4990337;28;20683;-61
2021/01/08 03:30:50;;;;;;;25.70;9.35;;;2.10;99.90;;;;;;4990783;28;20034;-61
2021/01/08 03:33:16;;;;;;;21.70;9.30;;;2.10;99.90;;;;;;4991202;28;20088;-61
2021/01/08 03:35:42;;;;;;;21.08;8.38;;;2.10;99.90;;;;;;4989779;28;20022;-61
2021/01/08 03:38:08;;;;;;;19.80;9.10;;;2.00;99.90;;;;;;4990847;28;20026;-61
2021/01/08 03:40:36;;;;;;;22.38;9.52;;;2.10;99.90;;;;;;4992352;28;20034;-59
2021/01/08 03:43:02;;;;;;;22.38;9.27;;;2.10;99.90;;;;;;4994882;28;20542;-60
2021/01/08 03:45:28;;;;;;;21.08;8.60;;;2.00;99.90;;;;;;4994745;28;20032;-61
2021/01/08 03:47:54;;;;;;;20.27;8.70;;;2.10;99.90;;;;;;4993560;28;20022;-61
2021/01/08 03:50:20;;;;;;;22.25;8.80;;;2.10;99.90;;;;;;4994451;28;20033;-60
2021/01/08 03:52:45;;;;;;;21.73;9.23;;;2.00;99.90;;;;;;4994675;28;20037;-61
2021/01/08 03:55:11;;;;;;;21.77;9.25;;;2.00;99.90;;;;;;4993085;28;20034;-61
2021/01/08 03:57:36;;;;;;;20.20;8.68;;;2.00;99.90;;;;;;4993197;28;20076;-61
2021/01/08 04:00:05;;;;;;;20.17;8.27;;;2.00;99.90;;;;;;4992091;28;20027;-61
2021/01/08 04:02:31;;;;;;;22.00;8.80;;;2.10;99.90;;;;;;4981950;28;20113;-60
2021/01/08 04:04:56;;;;;;;19.48;8.07;;;2.10;99.90;;;;;;4993531;28;20118;-60
2021/01/08 04:07:22;;;;;;;21.42;9.10;;;2.00;99.90;;;;;;4994407;28;20034;-62
2021/01/08 04:09:48;;;;;;;18.85;7.15;;;2.10;99.90;;;;;;4993827;28;20165;-61
2021/01/08 04:12:14;;;;;;;19.80;7.68;;;2.00;99.90;;;;;;4993200;28;20553;-61
2021/01/08 04:14:39;;;;;;;20.92;7.72;;;2.00;99.90;;;;;;4994268;28;20035;-61
2021/01/08 04:17:05;;;;;;;19.75;7.93;;;2.00;99.90;;;;;;4993381;28;20456;-61
2021/01/08 04:19:30;;;;;;;19.67;7.88;;;2.10;99.90;;;;;;4993396;28;20046;-61
2021/01/08 04:21:56;;;;;;;18.83;7.22;;;2.00;99.90;;;;;;4994316;28;20447;-60
2021/01/08 04:24:22;;;;;;;20.83;8.80;;;2.00;99.90;;;;;;4994315;28;20022;-62
2021/01/08 04:26:48;;;;;;;19.75;8.60;;;2.00;99.90;;;;;;4994488;28;20436;-61
2021/01/08 04:29:13;;;;;;;20.05;8.02;;;2.00;99.90;;;;;;4993446;28;20034;-61
2021/01/08 04:31:41;;;;;;;19.83;8.02;;;2.00;99.90;;;;;;4990492;28;20242;-61
2021/01/08 04:34:07;;;;;;;19.30;7.50;;;2.00;99.90;;;;;;4992541;28;20030;-61
2021/01/08 04:36:33;;;;;;;22.55;8.88;;;2.00;99.90;;;;;;4993877;28;20041;-61
2021/01/08 04:38:59;;;;;;;21.10;8.63;;;2.00;99.90;;;;;;4993049;28;20031;-61
2021/01/08 04:41:25;;;;;;;19.20;8.70;;;2.00;99.90;;;;;;4992194;28;20529;-61
2021/01/08 04:43:51;;;;;;;19.30;7.85;;;2.00;99.90;;;;;;4993677;28;20029;-60
2021/01/08 04:46:20;;;;;;;19.90;8.15;;;2.00;99.90;;;;;;4994087;28;20090;-61
2021/01/08 04:48:48;;;;;;;20.75;9.75;;;2.00;99.90;;;;;;4993525;28;20401;-61
2021/01/08 04:51:15;;;;;;;19.70;7.57;;;2.00;99.90;;;;;;4993148;28;20034;-60
2021/01/08 04:53:41;;;;;;;20.25;7.75;;;2.00;99.90;;;;;;4992838;28;20038;-62
2021/01/08 04:56:09;;;;;;;22.48;9.07;;;2.00;99.90;;;;;;4994748;28;20034;-61
2021/01/08 04:58:36;;;;;;;19.52;7.45;;;1.90;99.90;;;;;;4992558;28;20073;-61
2021/01/08 05:01:03;;;;;;;22.10;9.15;;;1.90;99.90;;;;;;4993600;28;20092;-60
2021/01/08 05:03:30;;;;;;;20.70;8.02;;;1.90;99.90;;;;;;4988826;28;20033;-61
2021/01/08 05:05:57;;;;;;;20.45;7.90;;;1.90;99.90;;;;;;4993481;28;20061;-61
2021/01/08 05:08:23;;;;;;;20.67;8.32;;;1.90;99.90;;;;;;4992999;28;20065;-61
2021/01/08 05:10:49;;;;;;;19.88;8.15;;;2.00;99.90;;;;;;4992118;28;20135;-59
2021/01/08 05:13:16;;;;;;;20.55;7.85;;;2.00;99.90;;;;;;4991897;28;20030;-61
2021/01/08 05:15:51;;;;;;;20.15;8.45;;;1.90;99.90;;;;;;4993292;28;20031;-60
2021/01/08 05:18:17;;;;;;;22.98;9.05;;;1.90;99.90;;;;;;4991264;28;20458;-60
2021/01/08 05:20:43;;;;;;;22.83;8.50;;;1.90;99.90;;;;;;4992867;28;20026;-60
2021/01/08 05:23:12;;;;;;;20.40;8.35;;;1.90;99.90;;;;;;4992961;28;20030;-61
2021/01/08 05:25:44;;;;;;;19.75;8.15;;;1.90;99.90;;;;;;4992879;28;20026;-61
2021/01/08 05:28:10;;;;;;;20.90;8.50;;;1.90;99.90;;;;;;4991885;28;20146;-60
2021/01/08 05:30:37;;;;;;;22.92;9.70;;;1.90;99.90;;;;;;4991184;28;20085;-61
2021/01/08 05:33:05;;;;;;;22.52;9.77;;;1.90;99.90;;;;;;4992893;28;20058;-60
2021/01/08 05:35:33;;;;;;;22.30;9.15;;;1.80;99.90;;;;;;4991345;28;20468;-61
2021/01/08 05:38:05;;;;;;;23.73;9.70;;;1.80;99.90;;;;;;4992488;28;20046;-61
2021/01/08 05:40:31;;;;;;;20.48;8.60;;;1.80;99.90;;;;;;4990832;28;20030;-61
2021/01/08 05:42:59;;;;;;;22.27;9.50;;;1.80;99.90;;;;;;4991211;28;20435;-61
2021/01/08 05:45:27;;;;;;;22.60;9.40;;;1.80;99.90;;;;;;4992756;28;20050;-59
2021/01/08 05:47:55;;;;;;;24.52;9.80;;;1.80;99.90;;;;;;4992384;28;20101;-59
2021/01/08 05:50:22;;;;;;;23.40;9.77;;;1.80;99.90;;;;;;4991591;28;20441;-61
2021/01/08 05:53:05;;;;;;;23.38;9.38;;;1.80;99.90;;;;;;4988816;28;20052;-61
2021/01/08 05:55:38;;;;;;;22.55;9.00;;;1.80;99.90;;;;;;4992319;28;20035;-60
2021/01/08 05:58:20;;;;;;;23.38;10.00;;;1.80;99.90;;;;;;4991072;28;20034;-61
2021/01/08 06:01:05;;;;;;;22.90;9.95;;;1.80;99.90;;;;;;4992240;28;20042;-61
2021/01/08 06:03:31;;;;;;;21.23;8.52;;;1.80;99.90;;;;;;4991829;28;20105;-59
2021/01/08 06:06:01;;;;;;;21.20;9.32;;;1.80;99.90;;;;;;4992138;28;20418;-61
2021/01/08 06:08:48;;;;;;;22.10;9.80;;;1.80;99.90;;;;;;4991948;28;20676;-59
2021/01/08 06:11:17;;;;;;;21.27;9.35;;;1.80;99.90;;;;;;4992012;28;20022;-60
2021/01/08 06:13:44;;;;;;;21.42;8.85;;;1.80;99.90;;;;;;4992064;28;20018;-61
2021/01/08 06:16:16;;;;;;;21.80;8.55;;;1.80;99.90;;;;;;4991929;28;20034;-61
2021/01/08 06:18:42;;;;;;;20.38;9.05;;;1.80;99.90;;;;;;4991294;28;20504;-59
2021/01/08 06:21:11;;;;;;;20.30;8.32;;;1.80;99.90;;;;;;4990626;28;20042;-60
2021/01/08 06:23:38;;;;;;;22.15;8.98;;;1.80;99.90;;;;;;4991696;28;20022;-61
2021/01/08 06:26:06;;;;;;;21.52;8.30;;;1.80;99.90;;;;;;4990311;28;20077;-60
2021/01/08 06:28:43;;;;;;;21.10;10.02;;;1.70;99.90;;;;;;4991240;28;20027;-61
2021/01/08 06:31:21;;;;;;;21.35;9.43;;;1.80;99.90;;;;;;4989744;28;20066;-58
2021/01/08 06:34:00;;;;;;;18.83;7.90;;;1.80;99.90;;;;;;4991828;28;20023;-59
2021/01/08 06:36:31;;;;;;;19.77;8.13;;;1.80;99.90;;;;;;4991525;28;20273;-57
2021/01/08 06:39:09;;;;;;;20.88;8.63;;;1.80;99.90;;;;;;4991088;28;20113;-59
2021/01/08 06:41:35;;;;;;;19.55;7.88;;;1.80;99.90;;;;;;4972074;28;20074;-58
2021/01/08 06:44:03;;;;;;;19.33;8.32;;;1.80;99.90;;;;;;4972196;28;20070;-60
2021/01/08 06:46:36;;;;;;;23.25;9.27;;;1.80;99.90;;;;;;4987031;28;20045;-58
2021/01/08 06:49:07;;;;;;;18.58;8.32;;;1.70;99.90;;;;;;4971320;28;20026;-58
2021/01/08 06:51:41;;;;;;;20.27;8.07;;;1.70;99.90;;;;;;4987666;28;20118;-59
2021/01/08 06:54:08;;;;;;;18.70;7.55;;;1.80;99.90;;;;;;4991299;28;20026;-61
2021/01/08 06:56:38;;;;;;;21.67;8.80;;;1.70;99.90;;;;;;4991549;28;20663;-59
2021/01/08 06:59:05;;;;;;;21.30;9.32;;;1.70;99.90;;;;;;4990850;28;20030;-61
2021/01/08 07:01:56;;;;;;;20.00;8.98;;;1.70;99.90;;;;;;4991080;28;20366;-61
2021/01/08 07:04:30;;;;;;;23.23;9.07;;;1.80;99.90;;;;;;4992168;28;20022;-60
2021/01/08 07:07:02;;;;;;;20.23;8.75;;;1.80;99.90;;;;;;4992339;28;20022;-60
2021/01/08 07:09:37;;;;;;;19.48;8.40;;;1.70;99.90;;;;;;4992643;28;20439;-60
2021/01/08 07:12:05;;;;;;;20.73;8.63;;;1.70;99.90;;;;;;4992038;28;20380;-58
2021/01/08 07:14:31;;;;;;;19.13;7.75;;;1.70;99.90;;;;;;4990340;28;20480;-58
2021/01/08 07:16:58;;;;;;;21.65;7.82;;;1.70;99.90;;;;;;4990215;28;20550;-57
2021/01/08 07:19:32;;;;;;;21.50;9.00;;;1.70;99.90;;;;;;4988834;28;20121;-57
2021/01/08 07:22:03;;;;;;;21.15;8.77;;;1.70;99.90;;;;;;4989268;28;20030;-61
2021/01/08 07:24:37;;;;;;;19.10;8.35;;;1.70;99.90;;;;;;4989539;28;20057;-59
2021/01/08 07:27:16;;;;;;;17.75;7.65;;;1.80;99.90;;;;;;4971897;28;20027;-59
2021/01/08 07:29:55;;;;;;;18.90;7.70;;;1.70;99.90;;;;;;4969985;28;20053;-61
2021/01/08 07:32:47;;;;;;;17.73;6.97;;;1.70;99.90;;;;;;4989810;28;20062;-60
2021/01/08 07:35:15;;;;;;;19.15;8.32;;;1.80;99.90;;;;;;4989561;28;20446;-62
2021/01/08 07:38:07;;;;;;;18.90;7.35;;;1.90;99.90;;;;;;4990333;28;20058;-63
2021/01/08 07:40:38;;;;;;;18.17;7.70;;;1.80;99.90;;;;;;4988362;28;20046;-62
2021/01/08 07:43:12;;;;;;;18.70;7.40;;;1.90;99.90;;;;;;4990662;28;20030;-62
2021/01/08 07:45:58;;;;;;;17.88;7.07;;;1.90;99.90;;;;;;4988564;28;20121;-62
2021/01/08 07:48:38;;;;;;;20.52;8.77;;;1.90;99.90;;;;;;4990161;28;20097;-60
2021/01/08 07:51:05;;;;;;;19.02;7.90;;;1.90;99.90;;;;;;4990553;28;20029;-60
2021/01/08 07:53:44;;;;;;;17.65;6.40;;;1.90;99.90;;;;;;4991051;28;20018;-61
2021/01/08 07:56:26;;;;;;;20.33;8.18;;;1.90;99.90;;;;;;4990981;28;20034;-61
2021/01/08 07:58:58;;;;;;;19.15;7.53;;;1.90;99.90;;;;;;4981629;28;20084;-60
2021/01/08 08:01:24;;;;;;;19.25;8.27;;;1.90;99.90;;;;;;4988954;28;20034;-60
2021/01/08 08:03:58;;;;;;;21.13;8.45;;;1.90;99.90;;;;;;4990685;28;20026;-60
2021/01/08 08:06:23;;;;;;;20.48;8.63;;;1.90;99.90;;;;;;4990189;28;20088;-60
2021/01/08 08:08:52;;;;;;;21.73;8.95;;;2.00;99.90;;;;;;4969759;28;20070;-62
2021/01/08 08:11:25;;;;;;;19.92;8.55;;;2.00;99.90;;;;;;4971334;28;20165;-61
2021/01/08 08:13:51;;;;;;;19.65;8.02;;;2.00;99.90;;;;;;4987171;28;20065;-60
2021/01/08 08:16:17;;;;;;;19.45;7.78;;;2.00;99.90;;;;;;4991331;28;20448;-62
2021/01/08 08:18:53;;;;;;;19.77;8.60;;;2.00;99.90;;;;;;4991801;28;20033;-62
2021/01/08 08:21:19;;;;;;;19.55;7.80;;;2.00;99.90;;;;;;4974327;28;20037;-60
2021/01/08 08:23:52;;;;;;;19.27;8.25;;;2.00;99.90;;;;;;4991392;28;20465;-59
2021/01/08 08:26:17;;;;;;;19.70;8.40;;;2.00;99.90;;;;;;4993527;28;20157;-60
2021/01/08 08:28:43;;;;;;;20.15;8.13;;;2.10;99.90;;;;;;4992203;28;20466;-59
2021/01/08 08:31:09;;;;;;;20.70;9.23;;;2.10;99.90;;;;;;4992543;28;20041;-59
2021/01/08 08:33:35;;;;;;;21.42;8.70;;;2.20;99.90;;;;;;4992416;28;20021;-58
2021/01/08 08:36:00;;;;;;;21.50;8.57;;;2.20;99.90;;;;;;4992721;28;20109;-58
2021/01/08 08:38:26;;;;;;;19.67;8.88;;;2.30;99.90;;;;;;4993048;28;20675;-59
2021/01/08 08:40:52;;;;;;;20.33;9.60;;;2.20;99.90;;;;;;4992530;28;20105;-60
2021/01/08 08:43:22;;;;;;;22.33;9.65;;;2.30;99.90;;;;;;4993788;28;20019;-57
2021/01/08 08:45:48;;;;;;;20.30;9.18;;;2.30;99.90;;;;;;4992462;28;20067;-59
2021/01/08 08:48:18;;;;;;;19.63;7.95;;;2.30;99.90;;;;;;4993884;28;20461;-60
2021/01/08 08:50:46;;;;;;;20.52;9.73;;;2.30;99.90;;;;;;4994143;28;20033;-57
2021/01/08 08:53:15;;;;;;;20.08;9.15;;;2.30;99.90;;;;;;4994457;28;20146;-59
2021/01/08 08:55:41;;;;;;;19.17;8.30;;;2.30;99.90;;;;;;5014281;23;20102;-58
2021/01/08 08:58:11;;;;;;;19.30;8.50;;;2.40;99.90;;;;;;5012622;28;20025;-61
2021/01/08 09:00:42;;;;;;;22.50;9.30;;;2.40;99.90;;;;;;4995768;28;20077;-59
2021/01/08 09:03:24;;;;;;;21.27;9.45;;;2.50;99.90;;;;;;5014631;28;20053;-57
2021/01/08 09:05:52;;;;;;;20.05;9.18;;;2.50;99.90;;;;;;5000100;28;20029;-58
2021/01/08 09:08:28;;;;;;;20.73;8.38;;;2.60;99.90;;;;;;4993083;28;20026;-59
2021/01/08 09:11:08;;;;;;;20.00;8.10;;;2.50;99.90;;;;;;4997845;28;20081;-60
2021/01/08 09:13:49;;;;;;;19.75;8.40;;;2.60;99.90;;;;;;4994632;28;20089;-60
2021/01/08 09:16:46;;;;;;;18.75;8.13;;;2.60;99.90;;;;;;4993496;28;20038;-61
2021/01/08 09:19:21;;;;;;;20.50;8.73;;;2.70;99.90;;;;;;4999968;28;20068;-60
2021/01/08 09:21:48;;;;;;;17.15;6.93;;;2.60;99.90;;;;;;5012592;28;20029;-60
2021/01/08 09:24:30;;;;;;;19.08;8.27;;;2.70;99.90;;;;;;5014228;28;20018;-59
2021/01/08 09:27:04;;;;;;;17.83;6.75;;;2.80;99.90;;;;;;5014233;28;20022;-58
2021/01/08 09:29:34;;;;;;;18.02;7.32;;;2.80;99.90;;;;;;5013211;28;20033;-58
2021/01/08 09:32:01;;;;;;;18.02;7.10;;;2.80;99.90;;;;;;5004429;28;20026;-59
2021/01/08 09:34:28;;;;;;;18.15;7.03;;;2.80;99.90;;;;;;4994892;28;20026;-63
2021/01/08 09:36:55;;;;;;;19.75;7.60;;;2.80;99.90;;;;;;4992011;28;20030;-62
2021/01/08 09:39:22;;;;;;;19.27;8.35;;;2.80;99.90;;;;;;4993250;28;20106;-62
2021/01/08 09:42:00;;;;;;;16.80;7.30;;;2.80;99.90;;;;;;4994092;28;20080;-62
2021/01/08 09:44:37;;;;;;;19.27;7.45;;;2.90;99.90;;;;;;4992693;28;20022;-63
2021/01/08 09:47:05;;;;;;;20.10;8.18;;;2.90;99.90;;;;;;4992787;28;20494;-64
2021/01/08 09:49:38;;;;;;;;;;;2.90;99.90;;;;;;4994186;28;20089;-63
2021/01/08 09:52:05;;;;;;;18.50;7.07;;;2.90;99.90;;;;;;4993529;28;19913;-63
2021/01/08 09:54:50;;;;;;;19.48;8.00;;;3.00;99.90;;;;;;4993258;28;20026;-64
2021/01/08 09:57:29;;;;;;;19.88;8.15;;;3.10;99.90;;;;;;4993028;28;20037;-63
2021/01/08 10:00:00;;;;;;;19.73;8.18;;;3.20;99.90;;;;;;4984595;28;20023;-64
2021/01/08 10:02:32;;;;;;;20.80;8.95;;;3.20;99.90;;;;;;4993087;28;20049;-63
2021/01/08 10:04:57;;;;;;;24.88;8.27;;;3.20;99.90;;;;;;4992944;28;20018;-63
2021/01/08 10:07:23;;;;;;;18.35;8.23;;;3.20;99.90;;;;;;4993025;28;20033;-63
2021/01/08 10:09:53;;;;;;;18.13;8.10;;;3.30;99.90;;;;;;4991338;28;20398;-64
2021/01/08 10:12:21;;;;;;;19.90;8.38;;;3.30;99.90;;;;;;4995187;28;20029;-65
2021/01/08 10:14:47;;;;;;;19.17;7.43;;;3.20;99.90;;;;;;5012780;28;20372;-64
2021/01/08 10:17:15;;;;;;;19.63;8.48;;;3.30;99.90;;;;;;5012563;28;20067;-64
2021/01/08 10:19:42;;;;;;;18.02;8.05;;;3.30;99.90;;;;;;5010554;28;20416;-64
2021/01/08 10:22:08;;;;;;;19.05;7.70;;;3.40;99.90;;;;;;5012447;28;20037;-62
2021/01/08 10:24:35;;;;;;;18.30;6.97;;;3.50;99.90;;;;;;5013078;28;20028;-63
2021/01/08 10:27:01;;;;;;;19.05;7.97;;;3.50;99.90;;;;;;5006976;28;20022;-63
2021/01/08 10:29:34;;;;;;;20.10;8.90;;;3.60;99.90;;;;;;5001277;28;20032;-62
2021/01/08 10:32:11;;;;;;;18.70;8.02;;;3.50;99.90;;;;;;5004850;28;20092;-64
2021/01/08 10:34:42;;;;;;;18.30;8.23;;;3.40;99.90;;;;;;4992494;28;20033;-63
2021/01/08 10:37:16;;;;;;;20.35;8.65;;;3.30;99.90;;;;;;4999333;28;20049;-63
2021/01/08 10:39:42;;;;;;;21.08;9.60;;;3.20;99.90;;;;;;4991876;28;20023;-65
2021/01/08 10:42:09;;;;;;;19.55;8.85;;;3.20;99.90;;;;;;4992270;28;20390;-62
2021/01/08 10:44:35;;;;;;;20.10;8.93;;;3.20;99.90;;;;;;4992749;28;20027;-62
2021/01/08 10:47:01;;;;;;;19.15;8.68;;;3.10;99.90;;;;;;4991147;28;20037;-64
2021/01/08 10:49:26;;;;;;;21.52;10.05;;;3.10;99.90;;;;;;4989951;28;20026;-65
2021/01/08 10:51:52;;;;;;;20.95;9.82;;;3.10;99.90;;;;;;4992359;28;20077;-65
2021/01/08 10:54:18;;;;;;;19.95;8.18;;;3.00;99.90;;;;;;4987609;28;20084;-64
2021/01/08 10:56:45;;;;;;;20.13;8.80;;;2.90;99.90;;;;;;4981111;28;20031;-63
2021/01/08 10:59:11;;;;;;;19.65;9.02;;;2.90;99.90;;;;;;4975407;28;20070;-62
2021/01/08 11:01:42;;;;;;;19.80;7.15;;;3.00;99.90;;;;;;4982655;28;20453;-63
2021/01/08 11:04:08;;;;;;;17.73;7.40;;;3.10;99.90;;;;;;4991420;28;20490;-62
2021/01/08 11:06:34;;;;;;;17.13;6.95;;;3.10;99.90;;;;;;4990961;28;20113;-61
2021/01/08 11:08:59;;;;;;;19.80;8.27;;;3.20;99.90;;;;;;4990325;28;20118;-55
2021/01/08 11:11:25;;;;;;;20.65;7.72;;;3.20;99.90;;;;;;4992638;28;20053;-52
2021/01/08 11:13:51;;;;;;;17.00;6.93;;;3.10;99.90;;;;;;4992297;28;20441;-49
2021/01/08 11:16:16;;;;;;;17.83;7.30;;;3.10;99.90;;;;;;4992428;28;20033;-57
2021/01/08 11:18:42;;;;;;;17.88;7.07;;;3.00;99.90;;;;;;4991351;28;20023;-56
2021/01/08 11:21:08;;;;;;;18.65;7.00;;;3.00;99.90;;;;;;4990287;28;20052;-54
2021/01/08 11:23:38;;;;;;;17.63;6.40;;;2.90;99.90;;;;;;4991584;28;20015;-49
2021/01/08 11:26:04;;;;;;;21.48;9.02;;;2.80;99.90;;;;;;4990531;28;20113;-51
2021/01/08 11:28:29;;;;;;;16.90;6.40;;;2.80;99.90;;;;;;4990550;28;20026;-48
2021/01/08 11:30:55;;;;;;;18.70;7.30;;;2.70;99.90;;;;;;4991275;28;20042;-52
2021/01/08 11:33:21;;;;;;;17.45;7.07;;;2.80;99.90;;;;;;4991314;28;20104;-56
2021/01/08 11:35:46;;;;;;;17.92;7.13;;;2.90;99.90;;;;;;4992605;28;20114;-54
2021/01/08 11:38:12;;;;;;;20.38;6.93;;;2.80;99.90;;;;;;4993038;28;20089;-58
2021/01/08 11:40:38;;;;;;;18.27;6.97;;;2.80;99.90;;;;;;4991632;28;20031;-55
2021/01/08 11:43:04;;;;;;;16.90;5.75;;;2.80;99.90;;;;;;4991935;28;20080;-50
2021/01/08 11:45:30;;;;;;;19.65;6.93;;;2.90;99.90;;;;;;4992026;28;20101;-55
2021/01/08 11:47:56;;;;;;;21.10;8.10;;;3.00;99.90;;;;;;4991756;28;20121;-53
2021/01/08 11:50:22;;;;;;;15.95;6.18;;;3.10;99.90;;;;;;4991383;28;20062;-55
2021/01/08 11:52:47;;;;;;;16.25;5.85;;;3.10;99.90;;;;;;4991946;28;20109;-50
2021/01/08 11:55:13;;;;;;;17.05;6.13;;;3.20;99.90;;;;;;4991635;28;20117;-52
2021/01/08 11:57:39;;;;;;;16.98;6.22;;;3.20;99.90;;;;;;4990424;28;20030;-56
2021/01/08 12:00:06;;;;;;;18.23;6.90;;;3.20;99.90;;;;;;4992191;28;20545;-56
2021/01/08 12:02:31;;;;;;;18.10;6.93;;;3.20;99.90;;;;;;4996020;28;20402;-55
2021/01/08 12:04:57;;;;;;;17.27;7.13;;;3.20;99.90;;;;;;4994435;28;20061;-53
2021/01/08 12:07:23;;;;;;;16.90;6.35;;;3.10;99.90;;;;;;4995646;28;20310;-55
2021/01/08 12:09:49;;;;;;;16.13;5.55;;;3.00;99.90;;;;;;4993667;28;20037;-55
2021/01/08 12:12:14;;;;;;;16.52;6.15;;;3.00;99.90;;;;;;4994598;28;20037;-54
2021/01/08 12:14:41;;;;;;;15.73;5.38;;;3.10;99.90;;;;;;4995467;28;20069;-51
2021/01/08 12:17:08;;;;;;;17.08;5.55;;;3.00;99.90;;;;;;4994415;28;20037;-55
2021/01/08 12:19:35;;;;;;;17.02;6.40;;;3.00;99.90;;;;;;4994749;28;20023;-56
2021/01/08 12:22:01;;;;;;;16.85;6.25;;;3.00;99.90;;;;;;4993939;28;20033;-50
2021/01/08 12:24:27;;;;;;;18.92;6.47;;;3.00;99.90;;;;;;4632493;28;9999829;-55
2021/01/08 12:26:53;;;;;;;17.98;6.72;;;3.00;99.90;;;;;;4989699;28;20022;-56
2021/01/08 12:29:20;;;;;;;15.75;5.63;;;3.10;99.90;;;;;;4983595;28;20069;-56
2021/01/08 12:31:46;;;;;;;16.70;6.13;;;3.10;99.90;;;;;;4988592;28;20486;-55
2021/01/08 12:34:12;;;;;;;16.88;5.90;;;3.20;99.90;;;;;;4975788;28;20035;-57
2021/01/08 12:36:38;;;;;;;15.55;6.13;;;3.10;99.90;;;;;;4975732;28;20031;-55
2021/01/08 12:39:04;;;;;;;17.45;6.25;;;3.10;99.90;;;;;;4975123;28;20030;-53
2021/01/08 12:41:31;;;;;;;16.92;6.43;;;3.10;99.90;;;;;;4989693;28;20034;-57
2021/01/08 12:43:58;;;;;;;16.70;6.30;;;3.10;99.90;;;;;;4995551;28;20030;-58
2021/01/08 12:46:23;;;;;;;17.08;6.38;;;3.20;99.90;;;;;;4995992;28;20037;-54
2021/01/08 12:48:49;;;;;;;17.67;7.28;;;3.10;99.90;;;;;;4995149;28;20033;-54
2021/01/08 12:51:15;;;;;;;17.98;7.10;;;3.10;99.90;;;;;;4995104;28;20382;-55